Council Grove, KS (66846)

12:05 PM CDT on March 27, 2017 (GMT -0500)
30th & Graphic Arts Rd | | Change Station

Elev 1180 ft 38.44 °N, 96.23 °W | Updated 48 seconds ago

Overcast
Overcast
49.0 °F
Feels Like 45 °F
N
9.0
Wind Variable Wind from North
Gusts 12.0 mph

Today
High -- | Low -- °F
--% Chance of Precip.
Yesterday
High -- | Low -- °F
Precip. -- in
Pressure 29.96 in
Visibility 10.0 miles
Clouds Overcast 900 ft
Windchill 45 °F
Dew Point 46 °F
Humidity 89%
Rainfall 0.00 in
Snow Depth Not available.
7:18 AM 7:44 PM
Waning Crescent, 0% visible
METAR KEMP 271653Z AUTO 35008KT 10SM OVC009 09/08 A2994 RMK AO2 CIG 008V012 SLP143 T00890083
Pressure 29.96 in
Visibility 10.0 miles
Clouds Overcast 900 ft
Windchill 45 °F
Dew Point 46 °F
Humidity 89%
Rainfall 0.00 in
Snow Depth Not available.
7:18 AM 7:44 PM
Waning Crescent, 0% visible
METAR KEMP 271653Z AUTO 35008KT 10SM OVC009 09/08 A2994 RMK AO2 CIG 008V012 SLP143 T00890083

Get Severe Weather Alerts

Thanks for signing up!

Be on the lookout for a verification email in your inbox.

You'll start receiving the daily forecast at 8 AM.

×

10-Day Weather Forecast

Almanac

Astronomy

Mar. 27, 2017 Rise Set
Actual Time
Civil Twilight
Nautical Twilight
Astronomical Twilight
Moon
Length of Visible Light
Length of Day
Tomorrow will be .
, % of the Moon is Illuminated

Today's Extremes

State Highs State Lows

Community

WunderPhotos

Upload Photos

1,962,540 photos uploaded!

WunderBlog® & News

Nearby

Air Quality

  Air Quality AQ Index Pollutant
Not available.

Snow Depth

Station Depth Elevation

Earthquake Activity

City Distance Mag. Time & Date
Minimum magnitude displayed is 2.5.

Earthquake Activity

City Distance Mag. Time & Date
Minimum magnitude displayed is 2.5.

Coastal Water Temperatures

Place Temperature

Stations

Nearby Weather Stations

Station Location Temp. Windchill Dew Point Humidity Wind Precip. Elev Updated Type
                   

Watches & Warnings

There are currently no watches in effect.